sensor_id;sensor_type;location;lat;lon;timestamp;pressure;altitude;pressure_sealevel;temperature;humidity
58239;BME280;44037;55.638;37.356;2023-02-21T00:01:47;96818.63;;;-8.52;80.16
58239;BME280;44037;55.638;37.356;2023-02-21T00:04:33;96813.38;;;-8.58;80.10
58239;BME280;44037;55.638;37.356;2023-02-21T00:07:18;96811.53;;;-8.62;80.21
58239;BME280;44037;55.638;37.356;2023-02-21T00:10:03;96810.66;;;-8.62;80.40
58239;BME280;44037;55.638;37.356;2023-02-21T00:12:48;96809.81;;;-8.63;80.08
58239;BME280;44037;55.638;37.356;2023-02-21T00:15:33;96817.34;;;-8.63;80.20
58239;BME280;44037;55.638;37.356;2023-02-21T00:18:17;96806.38;;;-8.65;79.94
58239;BME280;44037;55.638;37.356;2023-02-21T00:21:03;96808.72;;;-8.70;79.83
58239;BME280;44037;55.638;37.356;2023-02-21T00:23:47;96809.34;;;-8.75;79.17
58239;BME280;44037;55.638;37.356;2023-02-21T00:26:31;96808.19;;;-8.84;79.14
58239;BME280;44037;55.638;37.356;2023-02-21T00:29:16;96806.19;;;-8.92;79.49
58239;BME280;44037;55.638;37.356;2023-02-21T00:32:01;96801.81;;;-8.97;79.67
58239;BME280;44037;55.638;37.356;2023-02-21T00:34:45;96804.41;;;-8.95;79.49
58239;BME280;44037;55.638;37.356;2023-02-21T00:37:31;96798.38;;;-8.99;79.35
58239;BME280;44037;55.638;37.356;2023-02-21T00:40:15;96793.97;;;-9.04;79.66
58239;BME280;44037;55.638;37.356;2023-02-21T00:43:00;96786.34;;;-9.07;79.41
58239;BME280;44037;55.638;37.356;2023-02-21T00:45:45;96788.00;;;-9.08;79.78
58239;BME280;44037;55.638;37.356;2023-02-21T00:48:30;96791.94;;;-9.13;79.57
58239;BME280;44037;55.638;37.356;2023-02-21T00:51:15;96786.69;;;-9.19;79.61
58239;BME280;44037;55.638;37.356;2023-02-21T00:54:01;96789.16;;;-9.21;80.09
58239;BME280;44037;55.638;37.356;2023-02-21T00:56:45;96773.22;;;-9.21;79.57
58239;BME280;44037;55.638;37.356;2023-02-21T00:59:29;96779.03;;;-9.22;79.95
58239;BME280;44037;55.638;37.356;2023-02-21T01:02:14;96777.28;;;-9.25;79.89
58239;BME280;44037;55.638;37.356;2023-02-21T01:04:59;96772.25;;;-9.25;79.82
58239;BME280;44037;55.638;37.356;2023-02-21T01:07:43;96764.59;;;-9.28;79.72
58239;BME280;44037;55.638;37.356;2023-02-21T01:10:29;96769.44;;;-9.33;79.48
58239;BME280;44037;55.638;37.356;2023-02-21T01:13:13;96764.28;;;-9.36;79.82
58239;BME280;44037;55.638;37.356;2023-02-21T01:15:57;96753.41;;;-9.36;79.90
58239;BME280;44037;55.638;37.356;2023-02-21T01:18:41;96746.81;;;-9.34;79.87
58239;BME280;44037;55.638;37.356;2023-02-21T01:21:26;96754.44;;;-9.31;79.81
58239;BME280;44037;55.638;37.356;2023-02-21T01:24:12;96752.06;;;-9.28;80.29
58239;BME280;44037;55.638;37.356;2023-02-21T01:26:58;96744.34;;;-9.33;79.99
58239;BME280;44037;55.638;37.356;2023-02-21T01:29:43;96740.09;;;-9.35;79.51
58239;BME280;44037;55.638;37.356;2023-02-21T01:32:30;96746.72;;;-9.36;80.05
58239;BME280;44037;55.638;37.356;2023-02-21T01:35:15;96741.72;;;-9.36;79.70
58239;BME280;44037;55.638;37.356;2023-02-21T01:37:59;96741.00;;;-9.33;80.07
58239;BME280;44037;55.638;37.356;2023-02-21T01:40:43;96739.41;;;-9.31;80.05
58239;BME280;44037;55.638;37.356;2023-02-21T01:43:29;96735.44;;;-9.26;80.13
58239;BME280;44037;55.638;37.356;2023-02-21T01:46:16;96732.19;;;-9.23;80.16
58239;BME280;44037;55.638;37.356;2023-02-21T01:49:03;96735.47;;;-9.24;80.33
58239;BME280;44037;55.638;37.356;2023-02-21T01:51:49;96734.69;;;-9.23;79.94
58239;BME280;44037;55.638;37.356;2023-02-21T01:54:37;96742.28;;;-9.22;79.99
58239;BME280;44037;55.638;37.356;2023-02-21T01:57:22;96732.25;;;-9.22;80.30
58239;BME280;44037;55.638;37.356;2023-02-21T02:00:11;96735.78;;;-9.17;80.39
58239;BME280;44037;55.638;37.356;2023-02-21T02:02:59;96742.66;;;-9.13;80.08
58239;BME280;44037;55.638;37.356;2023-02-21T02:05:46;96742.78;;;-9.09;79.85
58239;BME280;44037;55.638;37.356;2023-02-21T02:08:32;96739.34;;;-9.12;80.26
58239;BME280;44037;55.638;37.356;2023-02-21T02:11:34;96736.03;;;-9.11;79.97
58239;BME280;44037;55.638;37.356;2023-02-21T02:14:44;96729.19;;;-9.15;79.44
58239;BME280;44037;55.638;37.356;2023-02-21T02:17:22;96729.00;;;-9.19;79.47
58239;BME280;44037;55.638;37.356;2023-02-21T02:23:10;96728.09;;;-9.21;80.11
58239;BME280;44037;55.638;37.356;2023-02-21T02:26:03;96728.88;;;-9.22;79.79
58239;BME280;44037;55.638;37.356;2023-02-21T02:28:48;96729.66;;;-9.23;79.25
58239;BME280;44037;55.638;37.356;2023-02-21T02:31:32;96740.56;;;-9.23;79.39
58239;BME280;44037;55.638;37.356;2023-02-21T02:34:31;96732.19;;;-9.23;79.97
58239;BME280;44037;55.638;37.356;2023-02-21T02:37:09;96728.75;;;-9.26;79.48
58239;BME280;44037;55.638;37.356;2023-02-21T02:39:40;96736.28;;;-9.26;79.63
58239;BME280;44037;55.638;37.356;2023-02-21T02:42:22;96729.50;;;-9.28;79.75
58239;BME280;44037;55.638;37.356;2023-02-21T02:44:55;96732.91;;;-9.26;79.48
58239;BME280;44037;55.638;37.356;2023-02-21T02:47:26;96729.63;;;-9.25;79.35
58239;BME280;44037;55.638;37.356;2023-02-21T02:49:57;96727.16;;;-9.23;79.73
58239;BME280;44037;55.638;37.356;2023-02-21T02:52:25;96732.25;;;-9.22;79.71
58239;BME280;44037;55.638;37.356;2023-02-21T02:54:59;96725.53;;;-9.23;79.18
58239;BME280;44037;55.638;37.356;2023-02-21T02:57:31;96725.53;;;-9.23;79.45
58239;BME280;44037;55.638;37.356;2023-02-21T03:00:06;96726.31;;;-9.24;78.84
58239;BME280;44037;55.638;37.356;2023-02-21T03:02:54;96736.03;;;-9.32;78.19
58239;BME280;44037;55.638;37.356;2023-02-21T03:05:37;96728.63;;;-9.50;78.04
58239;BME280;44037;55.638;37.356;2023-02-21T03:08:13;96737.50;;;-9.58;78.63
58239;BME280;44037;55.638;37.356;2023-02-21T03:10:52;96737.38;;;-9.61;78.67
58239;BME280;44037;55.638;37.356;2023-02-21T03:13:32;96733.00;;;-9.65;78.17
58239;BME280;44037;55.638;37.356;2023-02-21T03:16:05;96739.50;;;-9.70;78.49
58239;BME280;44037;55.638;37.356;2023-02-21T03:18:38;96741.78;;;-9.75;78.29
58239;BME280;44037;55.638;37.356;2023-02-21T03:21:11;96741.00;;;-9.74;78.42
58239;BME280;44037;55.638;37.356;2023-02-21T03:23:42;96731.84;;;-9.74;78.67
58239;BME280;44037;55.638;37.356;2023-02-21T03:26:13;96737.50;;;-9.78;78.46
58239;BME280;44037;55.638;37.356;2023-02-21T03:28:41;96736.47;;;-9.83;78.59
58239;BME280;44037;55.638;37.356;2023-02-21T03:31:09;96732.91;;;-9.88;77.98
58239;BME280;44037;55.638;37.356;2023-02-21T03:33:38;96726.72;;;-9.96;78.47
58239;BME280;44037;55.638;37.356;2023-02-21T03:36:08;96731.53;;;-10.01;78.33
58239;BME280;44037;55.638;37.356;2023-02-21T03:38:36;96729.50;;;-10.10;77.55
58239;BME280;44037;55.638;37.356;2023-02-21T03:41:03;96734.97;;;-10.19;77.77
58239;BME280;44037;55.638;37.356;2023-02-21T03:43:30;96728.75;;;-10.27;77.25
58239;BME280;44037;55.638;37.356;2023-02-21T03:45:57;96732.47;;;-10.38;77.41
58239;BME280;44037;55.638;37.356;2023-02-21T03:48:24;96731.47;;;-10.42;77.37
58239;BME280;44037;55.638;37.356;2023-02-21T03:50:51;96730.84;;;-10.38;77.83
58239;BME280;44037;55.638;37.356;2023-02-21T03:53:20;96728.50;;;-10.33;77.86
58239;BME280;44037;55.638;37.356;2023-02-21T03:55:47;96731.84;;;-10.32;78.24
58239;BME280;44037;55.638;37.356;2023-02-21T03:58:14;96727.84;;;-10.29;78.35
58239;BME280;44037;55.638;37.356;2023-02-21T04:00:41;96727.91;;;-10.27;78.12
58239;BME280;44037;55.638;37.356;2023-02-21T04:03:08;96730.56;;;-10.24;78.43
58239;BME280;44037;55.638;37.356;2023-02-21T04:05:35;96725.41;;;-10.27;77.71
58239;BME280;44037;55.638;37.356;2023-02-21T04:08:03;96725.19;;;-10.32;78.24
58239;BME280;44037;55.638;37.356;2023-02-21T04:10:32;96733.34;;;-10.38;77.32
58239;BME280;44037;55.638;37.356;2023-02-21T04:12:59;96734.66;;;-10.46;77.80
58239;BME280;44037;55.638;37.356;2023-02-21T04:15:26;96731.06;;;-10.51;77.21
58239;BME280;44037;55.638;37.356;2023-02-21T04:17:53;96732.31;;;-10.61;77.18
58239;BME280;44037;55.638;37.356;2023-02-21T04:20:20;96730.19;;;-10.71;76.39
58239;BME280;44037;55.638;37.356;2023-02-21T04:22:47;96730.13;;;-10.73;77.79
58239;BME280;44037;55.638;37.356;2023-02-21T04:25:14;96721.81;;;-10.72;77.41
58239;BME280;44037;55.638;37.356;2023-02-21T04:27:43;96731.16;;;-10.68;77.24
58239;BME280;44037;55.638;37.356;2023-02-21T04:30:11;96735.53;;;-10.63;77.52
58239;BME280;44037;55.638;37.356;2023-02-21T04:32:38;96731.09;;;-10.69;77.49
58239;BME280;44037;55.638;37.356;2023-02-21T04:35:05;96741.03;;;-10.71;77.00
58239;BME280;44037;55.638;37.356;2023-02-21T04:37:32;96743.78;;;-10.66;78.25
58239;BME280;44037;55.638;37.356;2023-02-21T04:39:59;96744.19;;;-10.57;78.20
58239;BME280;44037;55.638;37.356;2023-02-21T04:42:27;96742.72;;;-10.52;78.14
58239;BME280;44037;55.638;37.356;2023-02-21T04:44:56;96749.38;;;-10.52;78.02
58239;BME280;44037;55.638;37.356;2023-02-21T04:47:23;96748.66;;;-10.50;77.68
58239;BME280;44037;55.638;37.356;2023-02-21T04:49:50;96749.53;;;-10.49;77.98
58239;BME280;44037;55.638;37.356;2023-02-21T04:52:17;96755.97;;;-10.54;77.28
58239;BME280;44037;55.638;37.356;2023-02-21T04:54:46;96752.47;;;-10.58;76.65
58239;BME280;44037;55.638;37.356;2023-02-21T04:57:14;96757.41;;;-10.59;77.20
58239;BME280;44037;55.638;37.356;2023-02-21T04:59:41;96750.03;;;-10.56;77.98
58239;BME280;44037;55.638;37.356;2023-02-21T05:02:09;96752.63;;;-10.55;76.88
58239;BME280;44037;55.638;37.356;2023-02-21T05:04:37;96761.84;;;-10.54;76.72
58239;BME280;44037;55.638;37.356;2023-02-21T05:07:04;96750.31;;;-10.50;77.51
58239;BME280;44037;55.638;37.356;2023-02-21T05:09:32;96753.75;;;-10.48;77.12
58239;BME280;44037;55.638;37.356;2023-02-21T05:11:59;96750.56;;;-10.44;76.88
58239;BME280;44037;55.638;37.356;2023-02-21T05:14:26;96749.88;;;-10.41;76.96
58239;BME280;44037;55.638;37.356;2023-02-21T05:16:53;96758.09;;;-10.44;76.83
58239;BME280;44037;55.638;37.356;2023-02-21T05:19:22;96761.53;;;-10.42;77.00
58239;BME280;44037;55.638;37.356;2023-02-21T05:21:54;96768.09;;;-10.44;76.02
58239;BME280;44037;55.638;37.356;2023-02-21T05:24:22;96752.31;;;-10.61;75.57
58239;BME280;44037;55.638;37.356;2023-02-21T05:26:50;96766.94;;;-10.70;75.87
58239;BME280;44037;55.638;37.356;2023-02-21T05:29:17;96757.50;;;-10.76;75.72
58239;BME280;44037;55.638;37.356;2023-02-21T05:31:45;96754.78;;;-10.81;74.87
58239;BME280;44037;55.638;37.356;2023-02-21T05:34:13;96762.16;;;-10.84;76.25
58239;BME280;44037;55.638;37.356;2023-02-21T05:36:41;96757.28;;;-10.81;75.44
58239;BME280;44037;55.638;37.356;2023-02-21T05:39:08;96773.56;;;-10.71;76.62
58239;BME280;44037;55.638;37.356;2023-02-21T05:41:36;96769.44;;;-10.70;74.94
58239;BME280;44037;55.638;37.356;2023-02-21T05:44:04;96760.34;;;-10.68;75.51
58239;BME280;44037;55.638;37.356;2023-02-21T05:46:32;96771.50;;;-10.61;75.53
58239;BME280;44037;55.638;37.356;2023-02-21T05:49:02;96765.50;;;-10.65;75.35
58239;BME280;44037;55.638;37.356;2023-02-21T05:51:33;96778.88;;;-10.65;74.95
58239;BME280;44037;55.638;37.356;2023-02-21T05:54:02;96758.56;;;-10.71;75.11
58239;BME280;44037;55.638;37.356;2023-02-21T05:56:29;96754.28;;;-10.73;74.22
58239;BME280;44037;55.638;37.356;2023-02-21T05:58:56;96772.50;;;-10.76;74.80
58239;BME280;44037;55.638;37.356;2023-02-21T06:01:23;96765.06;;;-10.74;74.34
58239;BME280;44037;55.638;37.356;2023-02-21T06:03:50;96764.38;;;-10.72;74.91
58239;BME280;44037;55.638;37.356;2023-02-21T06:06:17;96767.88;;;-10.68;74.72
58239;BME280;44037;55.638;37.356;2023-02-21T06:08:45;96768.22;;;-10.60;75.07
58239;BME280;44037;55.638;37.356;2023-02-21T06:11:15;96763.56;;;-10.53;75.25
58239;BME280;44037;55.638;37.356;2023-02-21T06:13:49;96774.72;;;-10.46;74.63
58239;BME280;44037;55.638;37.356;2023-02-21T06:16:17;96762.44;;;-10.40;75.07
58239;BME280;44037;55.638;37.356;2023-02-21T06:18:44;96764.41;;;-10.32;75.00
58239;BME280;44037;55.638;37.356;2023-02-21T06:21:11;96763.94;;;-10.24;75.26
58239;BME280;44037;55.638;37.356;2023-02-21T06:23:38;96761.63;;;-10.19;74.70
58239;BME280;44037;55.638;37.356;2023-02-21T06:26:05;96768.50;;;-10.15;74.01
58239;BME280;44037;55.638;37.356;2023-02-21T06:28:34;96763.50;;;-10.15;74.11
58239;BME280;44037;55.638;37.356;2023-02-21T06:31:02;96773.81;;;-10.09;74.42
58239;BME280;44037;55.638;37.356;2023-02-21T06:33:29;96764.78;;;-10.05;73.23
58239;BME280;44037;55.638;37.356;2023-02-21T06:35:56;96765.38;;;-10.11;72.48
58239;BME280;44037;55.638;37.356;2023-02-21T06:38:23;96773.38;;;-10.18;72.15
58239;BME280;44037;55.638;37.356;2023-02-21T06:40:50;96772.97;;;-10.27;72.19
58239;BME280;44037;55.638;37.356;2023-02-21T06:43:17;96771.84;;;-10.34;70.77
58239;BME280;44037;55.638;37.356;2023-02-21T06:45:46;96774.13;;;-10.40;71.47
58239;BME280;44037;55.638;37.356;2023-02-21T06:48:13;96770.91;;;-10.38;71.85
58239;BME280;44037;55.638;37.356;2023-02-21T06:50:41;96779.56;;;-10.29;72.24
58239;BME280;44037;55.638;37.356;2023-02-21T06:53:08;96787.28;;;-10.25;70.81
58239;BME280;44037;55.638;37.356;2023-02-21T06:55:35;96789.44;;;-10.32;69.83
58239;BME280;44037;55.638;37.356;2023-02-21T06:58:02;96786.41;;;-10.45;69.94
58239;BME280;44037;55.638;37.356;2023-02-21T07:00:29;96776.91;;;-10.52;70.65
58239;BME280;44037;55.638;37.356;2023-02-21T07:02:58;96781.34;;;-10.46;71.10
58239;BME280;44037;55.638;37.356;2023-02-21T07:05:25;96781.88;;;-10.34;71.43
58239;BME280;44037;55.638;37.356;2023-02-21T07:07:52;96782.34;;;-10.23;71.16
58239;BME280;44037;55.638;37.356;2023-02-21T07:10:19;96785.84;;;-10.20;70.71
58239;BME280;44037;55.638;37.356;2023-02-21T07:12:46;96786.25;;;-10.10;71.31
58239;BME280;44037;55.638;37.356;2023-02-21T07:15:13;96794.25;;;-9.99;71.09
58239;BME280;44037;55.638;37.356;2023-02-21T07:17:40;96792.84;;;-9.93;70.64
58239;BME280;44037;55.638;37.356;2023-02-21T07:20:09;96800.97;;;-9.98;69.06
58239;BME280;44037;55.638;37.356;2023-02-21T07:22:37;96787.13;;;-9.90;69.30
58239;BME280;44037;55.638;37.356;2023-02-21T07:25:04;96786.72;;;-9.80;69.28
58239;BME280;44037;55.638;37.356;2023-02-21T07:27:32;96788.94;;;-9.66;69.58
58239;BME280;44037;55.638;37.356;2023-02-21T07:29:59;96792.91;;;-9.52;70.29
58239;BME280;44037;55.638;37.356;2023-02-21T07:32:26;96787.75;;;-9.35;70.81
58239;BME280;44037;55.638;37.356;2023-02-21T07:34:53;96783.63;;;-9.12;70.51
58239;BME280;44037;55.638;37.356;2023-02-21T07:37:21;96793.81;;;-8.88;70.84
58239;BME280;44037;55.638;37.356;2023-02-21T07:39:48;96791.72;;;-8.77;70.19
58239;BME280;44037;55.638;37.356;2023-02-21T07:42:15;96790.53;;;-8.64;70.14
58239;BME280;44037;55.638;37.356;2023-02-21T07:44:43;96796.16;;;-8.47;70.26
58239;BME280;44037;55.638;37.356;2023-02-21T07:47:10;96797.03;;;-8.24;69.51
58239;BME280;44037;55.638;37.356;2023-02-21T07:49:37;96792.75;;;-8.04;69.61
58239;BME280;44037;55.638;37.356;2023-02-21T07:52:05;96799.59;;;-8.22;66.66
58239;BME280;44037;55.638;37.356;2023-02-21T07:54:34;96793.38;;;-8.55;65.22
58239;BME280;44037;55.638;37.356;2023-02-21T07:57:01;96800.06;;;-8.78;64.31
58239;BME280;44037;55.638;37.356;2023-02-21T07:59:28;96804.28;;;-8.98;65.00
58239;BME280;44037;55.638;37.356;2023-02-21T08:01:55;96805.66;;;-9.26;63.53
58239;BME280;44037;55.638;37.356;2023-02-21T08:04:22;96803.50;;;-9.38;64.61
58239;BME280;44037;55.638;37.356;2023-02-21T08:06:50;96803.63;;;-9.35;64.30
58239;BME280;44037;55.638;37.356;2023-02-21T08:09:17;96797.16;;;-9.30;65.19
58239;BME280;44037;55.638;37.356;2023-02-21T08:11:45;96796.13;;;-9.14;65.76
58239;BME280;44037;55.638;37.356;2023-02-21T08:14:12;96801.69;;;-8.78;66.07
58239;BME280;44037;55.638;37.356;2023-02-21T08:16:40;96800.47;;;-8.44;66.71
58239;BME280;44037;55.638;37.356;2023-02-21T08:19:07;96818.97;;;-8.20;67.04
58239;BME280;44037;55.638;37.356;2023-02-21T08:21:34;96803.53;;;-8.06;65.60
58239;BME280;44037;55.638;37.356;2023-02-21T08:24:01;96807.97;;;-7.99;64.11
58239;BME280;44037;55.638;37.356;2023-02-21T08:26:28;96815.94;;;-7.88;64.59
58239;BME280;44037;55.638;37.356;2023-02-21T08:28:57;96816.09;;;-7.83;64.25
58239;BME280;44037;55.638;37.356;2023-02-21T08:31:24;96802.13;;;-7.75;64.55
58239;BME280;44037;55.638;37.356;2023-02-21T08:33:51;96800.56;;;-7.72;63.41
58239;BME280;44037;55.638;37.356;2023-02-21T08:36:18;96799.88;;;-7.67;63.43
58239;BME280;44037;55.638;37.356;2023-02-21T08:38:45;96801.97;;;-7.80;62.33
58239;BME280;44037;55.638;37.356;2023-02-21T08:41:12;96802.03;;;-8.01;63.38
58239;BME280;44037;55.638;37.356;2023-02-21T08:43:40;96806.03;;;-8.06;63.58
58239;BME280;44037;55.638;37.356;2023-02-21T08:46:09;96806.03;;;-8.06;64.04
58239;BME280;44037;55.638;37.356;2023-02-21T08:48:36;96798.69;;;-8.02;64.39
58239;BME280;44037;55.638;37.356;2023-02-21T08:51:03;96804.44;;;-7.81;64.76
58239;BME280;44037;55.638;37.356;2023-02-21T08:53:30;96794.16;;;-7.63;64.62
58239;BME280;44037;55.638;37.356;2023-02-21T08:55:57;96801.91;;;-7.57;63.74
58239;BME280;44037;55.638;37.356;2023-02-21T08:58:24;96804.72;;;-7.48;63.87
58239;BME280;44037;55.638;37.356;2023-02-21T09:00:51;96808.44;;;-7.38;63.82
58239;BME280;44037;55.638;37.356;2023-02-21T09:03:20;96809.63;;;-7.27;62.74
58239;BME280;44037;55.638;37.356;2023-02-21T09:05:47;96821.25;;;-7.54;59.69
58239;BME280;44037;55.638;37.356;2023-02-21T09:08:14;96814.84;;;-7.95;59.56
58239;BME280;44037;55.638;37.356;2023-02-21T09:10:45;96822.72;;;-8.31;60.09
58239;BME280;44037;55.638;37.356;2023-02-21T09:13:13;96826.66;;;-8.60;60.04
58239;BME280;44037;55.638;37.356;2023-02-21T09:15:41;96824.16;;;-8.82;60.66
58239;BME280;44037;55.638;37.356;2023-02-21T09:18:09;96826.59;;;-9.04;60.58
58239;BME280;44037;55.638;37.356;2023-02-21T09:20:37;96830.41;;;-9.14;61.06
58239;BME280;44037;55.638;37.356;2023-02-21T09:23:06;96839.34;;;-9.21;61.64
58239;BME280;44037;55.638;37.356;2023-02-21T09:25:34;96832.19;;;-9.31;61.95
58239;BME280;44037;55.638;37.356;2023-02-21T09:28:01;96836.09;;;-9.38;62.41
58239;BME280;44037;55.638;37.356;2023-02-21T09:30:28;96840.81;;;-9.46;63.19
58239;BME280;44037;55.638;37.356;2023-02-21T09:32:56;96830.09;;;-9.42;63.67
58239;BME280;44037;55.638;37.356;2023-02-21T09:35:23;96828.97;;;-9.48;63.80
58239;BME280;44037;55.638;37.356;2023-02-21T09:37:51;96832.78;;;-9.58;63.52
58239;BME280;44037;55.638;37.356;2023-02-21T09:40:26;96840.84;;;-9.64;63.52
58239;BME280;44037;55.638;37.356;2023-02-21T09:42:57;96835.44;;;-9.73;63.86
58239;BME280;44037;55.638;37.356;2023-02-21T09:45:28;96834.88;;;-9.87;64.07
58239;BME280;44037;55.638;37.356;2023-02-21T09:47:58;96832.91;;;-10.12;63.84
58239;BME280;44037;55.638;37.356;2023-02-21T09:50:31;96837.31;;;-10.07;63.98
58239;BME280;44037;55.638;37.356;2023-02-21T09:53:00;96840.53;;;-9.91;64.55
58239;BME280;44037;55.638;37.356;2023-02-21T09:55:30;96839.88;;;-9.87;64.50
58239;BME280;44037;55.638;37.356;2023-02-21T09:58:00;96834.66;;;-9.72;65.29
58239;BME280;44037;55.638;37.356;2023-02-21T10:00:32;96831.16;;;-9.56;65.26
58239;BME280;44037;55.638;37.356;2023-02-21T10:03:09;96836.31;;;-9.53;64.87
58239;BME280;44037;55.638;37.356;2023-02-21T10:05:43;96842.53;;;-9.64;63.78
58239;BME280;44037;55.638;37.356;2023-02-21T10:08:21;96848.78;;;-9.74;63.63
58239;BME280;44037;55.638;37.356;2023-02-21T10:10:51;96855.69;;;-9.68;64.02
58239;BME280;44037;55.638;37.356;2023-02-21T10:13:33;96845.81;;;-9.65;63.72
58239;BME280;44037;55.638;37.356;2023-02-21T10:16:07;96842.19;;;-9.52;63.96
58239;BME280;44037;55.638;37.356;2023-02-21T10:18:41;96849.38;;;-9.41;64.86
58239;BME280;44037;55.638;37.356;2023-02-21T10:21:16;96853.81;;;-9.14;64.30
58239;BME280;44037;55.638;37.356;2023-02-21T10:23:50;96842.41;;;-9.07;63.67
58239;BME280;44037;55.638;37.356;2023-02-21T10:26:23;96852.81;;;-8.98;63.64
58239;BME280;44037;55.638;37.356;2023-02-21T10:28:52;96853.00;;;-9.14;62.56
58239;BME280;44037;55.638;37.356;2023-02-21T10:31:24;96852.72;;;-9.20;62.82
58239;BME280;44037;55.638;37.356;2023-02-21T10:33:55;96862.88;;;-9.37;62.53
58239;BME280;44037;55.638;37.356;2023-02-21T10:36:24;96867.00;;;-9.59;61.72
58239;BME280;44037;55.638;37.356;2023-02-21T10:38:57;96863.81;;;-9.74;61.52
58239;BME280;44037;55.638;37.356;2023-02-21T10:41:27;96861.44;;;-9.71;61.93
58239;BME280;44037;55.638;37.356;2023-02-21T10:44:00;96867.88;;;-9.58;61.89
58239;BME280;44037;55.638;37.356;2023-02-21T10:46:33;96864.50;;;-9.39;62.65
58239;BME280;44037;55.638;37.356;2023-02-21T10:49:19;96866.94;;;-9.21;63.35
58239;BME280;44037;55.638;37.356;2023-02-21T10:52:03;96867.38;;;-8.89;63.54
58239;BME280;44037;55.638;37.356;2023-02-21T10:54:32;96876.19;;;-8.77;62.26
58239;BME280;44037;55.638;37.356;2023-02-21T10:56:59;96884.59;;;-8.98;60.36
58239;BME280;44037;55.638;37.356;2023-02-21T10:59:30;96882.81;;;-9.20;61.37
58239;BME280;44037;55.638;37.356;2023-02-21T11:02:00;96882.03;;;-9.19;61.45
58239;BME280;44037;55.638;37.356;2023-02-21T11:04:29;96890.16;;;-9.25;61.12
58239;BME280;44037;55.638;37.356;2023-02-21T11:07:02;96889.97;;;-9.30;60.63
58239;BME280;44037;55.638;37.356;2023-02-21T11:09:38;96902.69;;;-9.45;60.06
58239;BME280;44037;55.638;37.356;2023-02-21T11:12:17;96908.09;;;-9.55;60.48
58239;BME280;44037;55.638;37.356;2023-02-21T11:15:03;96916.19;;;-9.61;60.80
58239;BME280;44037;55.638;37.356;2023-02-21T11:17:32;96907.69;;;-9.64;60.73
58239;BME280;44037;55.638;37.356;2023-02-21T11:20:03;96924.69;;;-9.77;60.56
58239;BME280;44037;55.638;37.356;2023-02-21T11:22:37;96907.16;;;-9.77;60.75
58239;BME280;44037;55.638;37.356;2023-02-21T11:25:19;96920.47;;;-9.78;60.77
58239;BME280;44037;55.638;37.356;2023-02-21T11:27:58;96918.59;;;-9.82;60.99
58239;BME280;44037;55.638;37.356;2023-02-21T11:30:27;96924.94;;;-9.90;61.09
58239;BME280;44037;55.638;37.356;2023-02-21T11:32:57;96929.91;;;-10.10;60.84
58239;BME280;44037;55.638;37.356;2023-02-21T11:35:26;96927.97;;;-10.15;61.85
58239;BME280;44037;55.638;37.356;2023-02-21T11:37:56;96923.66;;;-10.18;61.71
58239;BME280;44037;55.638;37.356;2023-02-21T11:40:31;96926.16;;;-10.18;62.22
58239;BME280;44037;55.638;37.356;2023-02-21T11:43:19;96927.25;;;-10.13;62.20
58239;BME280;44037;55.638;37.356;2023-02-21T11:45:59;96928.97;;;-10.12;62.41
58239;BME280;44037;55.638;37.356;2023-02-21T11:48:30;96950.56;;;-10.14;62.60
58239;BME280;44037;55.638;37.356;2023-02-21T11:51:04;96942.63;;;-10.23;62.56
58239;BME280;44037;55.638;37.356;2023-02-21T11:53:38;96945.25;;;-10.20;63.32
58239;BME280;44037;55.638;37.356;2023-02-21T11:56:17;96934.41;;;-10.21;63.19
58239;BME280;44037;55.638;37.356;2023-02-21T11:58:55;96942.84;;;-10.19;63.25
58239;BME280;44037;55.638;37.356;2023-02-21T12:01:27;96942.84;;;-10.00;63.63
58239;BME280;44037;55.638;37.356;2023-02-21T12:04:12;96952.78;;;-9.84;63.48
58239;BME280;44037;55.638;37.356;2023-02-21T12:06:45;96961.34;;;-9.79;62.89
58239;BME280;44037;55.638;37.356;2023-02-21T12:09:18;96951.72;;;-9.89;62.77
58239;BME280;44037;55.638;37.356;2023-02-21T12:11:58;96963.66;;;-9.83;62.81
58239;BME280;44037;55.638;37.356;2023-02-21T12:14:49;96953.56;;;-9.85;63.72
58239;BME280;44037;55.638;37.356;2023-02-21T12:17:44;96968.69;;;-9.64;63.43
58239;BME280;44037;55.638;37.356;2023-02-21T12:20:42;96978.63;;;-9.67;63.65
58239;BME280;44037;55.638;37.356;2023-02-21T12:23:24;96972.72;;;-9.67;63.64
58239;BME280;44037;55.638;37.356;2023-02-21T12:26:11;96980.97;;;-9.70;63.77
58239;BME280;44037;55.638;37.356;2023-02-21T12:28:55;96976.75;;;-9.71;62.76
58239;BME280;44037;55.638;37.356;2023-02-21T12:31:32;96982.41;;;-9.75;63.22
58239;BME280;44037;55.638;37.356;2023-02-21T12:34:15;96973.66;;;-9.65;63.56
58239;BME280;44037;55.638;37.356;2023-02-21T12:37:04;96998.09;;;-9.61;63.24
58239;BME280;44037;55.638;37.356;2023-02-21T12:42:31;96995.38;;;-9.84;63.28
58239;BME280;44037;55.638;37.356;2023-02-21T12:45:13;96994.50;;;-9.84;62.95
58239;BME280;44037;55.638;37.356;2023-02-21T12:47:49;97008.75;;;-9.83;63.02
58239;BME280;44037;55.638;37.356;2023-02-21T12:50:21;97011.13;;;-9.87;62.49
58239;BME280;44037;55.638;37.356;2023-02-21T12:52:56;97010.19;;;-9.89;62.58
58239;BME280;44037;55.638;37.356;2023-02-21T12:55:31;97010.84;;;-9.93;63.02
58239;BME280;44037;55.638;37.356;2023-02-21T12:58:03;97008.56;;;-9.88;62.78
58239;BME280;44037;55.638;37.356;2023-02-21T13:00:40;97018.72;;;-9.85;63.05
58239;BME280;44037;55.638;37.356;2023-02-21T13:03:31;97019.38;;;-9.89;62.89
58239;BME280;44037;55.638;37.356;2023-02-21T13:06:04;97035.19;;;-9.90;62.70
58239;BME280;44037;55.638;37.356;2023-02-21T13:08:37;97021.81;;;-9.91;62.98
58239;BME280;44037;55.638;37.356;2023-02-21T13:11:12;97025.94;;;-9.91;62.99
58239;BME280;44037;55.638;37.356;2023-02-21T13:13:40;97039.78;;;-9.99;62.52
58239;BME280;44037;55.638;37.356;2023-02-21T13:16:10;97030.88;;;-10.11;61.91
58239;BME280;44037;55.638;37.356;2023-02-21T13:18:40;97034.00;;;-10.15;62.10
58239;BME280;44037;55.638;37.356;2023-02-21T13:21:19;97054.69;;;-10.19;62.47
58239;BME280;44037;55.638;37.356;2023-02-21T13:27:12;97058.84;;;-10.38;62.29